sensor_id;sensor_type;location;lat;lon;timestamp;temperature;humidity
15156;DHT22;7678;50.058;8.306;2023-06-14T00:00:19;19.40;48.30
15156;DHT22;7678;50.058;8.306;2023-06-14T00:02:47;19.30;48.80
15156;DHT22;7678;50.058;8.306;2023-06-14T00:05:16;19.30;48.60
15156;DHT22;7678;50.058;8.306;2023-06-14T00:07:44;19.20;48.90
15156;DHT22;7678;50.058;8.306;2023-06-14T00:10:15;19.10;48.80
15156;DHT22;7678;50.058;8.306;2023-06-14T00:12:47;19.10;49.30
15156;DHT22;7678;50.058;8.306;2023-06-14T00:15:20;19.00;50.20
15156;DHT22;7678;50.058;8.306;2023-06-14T00:17:49;19.00;48.80
15156;DHT22;7678;50.058;8.306;2023-06-14T00:20:18;19.10;48.30
15156;DHT22;7678;50.058;8.306;2023-06-14T00:22:47;18.90;50.20
15156;DHT22;7678;50.058;8.306;2023-06-14T00:25:26;18.80;50.50
15156;DHT22;7678;50.058;8.306;2023-06-14T00:27:58;18.70;49.50
15156;DHT22;7678;50.058;8.306;2023-06-14T00:30:26;18.80;48.80
15156;DHT22;7678;50.058;8.306;2023-06-14T00:32:58;19.10;48.30
15156;DHT22;7678;50.058;8.306;2023-06-14T00:35:26;19.20;48.10
15156;DHT22;7678;50.058;8.306;2023-06-14T00:37:54;19.00;48.30
15156;DHT22;7678;50.058;8.306;2023-06-14T00:40:22;19.10;48.70
15156;DHT22;7678;50.058;8.306;2023-06-14T00:42:51;18.80;48.80
15156;DHT22;7678;50.058;8.306;2023-06-14T00:45:21;18.80;48.70
15156;DHT22;7678;50.058;8.306;2023-06-14T00:47:50;18.80;48.60
15156;DHT22;7678;50.058;8.306;2023-06-14T00:50:20;18.70;48.90
15156;DHT22;7678;50.058;8.306;2023-06-14T00:52:48;18.80;49.80
15156;DHT22;7678;50.058;8.306;2023-06-14T00:55:17;18.70;49.00
15156;DHT22;7678;50.058;8.306;2023-06-14T00:57:46;18.70;49.70
15156;DHT22;7678;50.058;8.306;2023-06-14T01:00:18;18.70;50.10
15156;DHT22;7678;50.058;8.306;2023-06-14T01:02:48;18.70;49.40
15156;DHT22;7678;50.058;8.306;2023-06-14T01:05:17;18.50;49.10
15156;DHT22;7678;50.058;8.306;2023-06-14T01:08:14;18.60;49.80
15156;DHT22;7678;50.058;8.306;2023-06-14T01:11:10;18.70;49.30
15156;DHT22;7678;50.058;8.306;2023-06-14T01:13:46;18.60;50.30
15156;DHT22;7678;50.058;8.306;2023-06-14T01:16:20;18.60;49.30
15156;DHT22;7678;50.058;8.306;2023-06-14T01:18:52;18.50;49.70
15156;DHT22;7678;50.058;8.306;2023-06-14T01:21:24;18.60;49.50
15156;DHT22;7678;50.058;8.306;2023-06-14T01:23:56;18.40;50.20
15156;DHT22;7678;50.058;8.306;2023-06-14T01:26:25;18.30;50.60
15156;DHT22;7678;50.058;8.306;2023-06-14T01:28:56;18.10;51.60
15156;DHT22;7678;50.058;8.306;2023-06-14T01:31:26;18.10;51.10
15156;DHT22;7678;50.058;8.306;2023-06-14T01:33:56;18.10;51.30
15156;DHT22;7678;50.058;8.306;2023-06-14T01:36:26;18.10;51.80
15156;DHT22;7678;50.058;8.306;2023-06-14T01:38:59;18.00;51.70
15156;DHT22;7678;50.058;8.306;2023-06-14T01:41:28;18.00;51.80
15156;DHT22;7678;50.058;8.306;2023-06-14T01:43:58;17.90;51.70
15156;DHT22;7678;50.058;8.306;2023-06-14T01:46:26;18.00;51.70
15156;DHT22;7678;50.058;8.306;2023-06-14T01:48:55;18.00;51.80
15156;DHT22;7678;50.058;8.306;2023-06-14T01:51:23;17.90;51.80
15156;DHT22;7678;50.058;8.306;2023-06-14T01:53:51;17.90;52.10
15156;DHT22;7678;50.058;8.306;2023-06-14T01:56:20;17.80;51.90
15156;DHT22;7678;50.058;8.306;2023-06-14T01:58:49;17.70;52.50
15156;DHT22;7678;50.058;8.306;2023-06-14T02:01:18;17.80;52.90
15156;DHT22;7678;50.058;8.306;2023-06-14T02:03:48;17.70;52.60
15156;DHT22;7678;50.058;8.306;2023-06-14T02:06:18;17.70;52.40
15156;DHT22;7678;50.058;8.306;2023-06-14T02:08:46;17.80;52.00
15156;DHT22;7678;50.058;8.306;2023-06-14T02:11:15;17.90;51.70
15156;DHT22;7678;50.058;8.306;2023-06-14T02:13:46;17.80;51.80
15156;DHT22;7678;50.058;8.306;2023-06-14T02:16:14;17.90;51.80
15156;DHT22;7678;50.058;8.306;2023-06-14T02:18:44;17.80;51.70
15156;DHT22;7678;50.058;8.306;2023-06-14T02:21:12;17.90;51.40
15156;DHT22;7678;50.058;8.306;2023-06-14T02:23:40;17.90;51.50
15156;DHT22;7678;50.058;8.306;2023-06-14T02:26:11;17.70;51.50
15156;DHT22;7678;50.058;8.306;2023-06-14T02:28:39;17.60;52.00
15156;DHT22;7678;50.058;8.306;2023-06-14T02:31:09;17.40;52.70
15156;DHT22;7678;50.058;8.306;2023-06-14T02:33:37;17.40;52.80
15156;DHT22;7678;50.058;8.306;2023-06-14T02:36:06;17.40;53.00
15156;DHT22;7678;50.058;8.306;2023-06-14T02:38:34;17.20;53.20
15156;DHT22;7678;50.058;8.306;2023-06-14T02:41:02;17.40;54.10
15156;DHT22;7678;50.058;8.306;2023-06-14T02:43:30;17.40;53.40
15156;DHT22;7678;50.058;8.306;2023-06-14T02:45:58;17.40;53.60
15156;DHT22;7678;50.058;8.306;2023-06-14T02:48:28;17.40;53.40
15156;DHT22;7678;50.058;8.306;2023-06-14T02:50:57;17.50;53.50
15156;DHT22;7678;50.058;8.306;2023-06-14T02:53:25;17.10;54.20
15156;DHT22;7678;50.058;8.306;2023-06-14T02:55:54;16.90;54.70
15156;DHT22;7678;50.058;8.306;2023-06-14T02:58:23;16.80;54.80
15156;DHT22;7678;50.058;8.306;2023-06-14T03:00:52;16.90;54.60
15156;DHT22;7678;50.058;8.306;2023-06-14T03:03:20;17.10;54.20
15156;DHT22;7678;50.058;8.306;2023-06-14T03:05:52;16.90;54.70
15156;DHT22;7678;50.058;8.306;2023-06-14T03:08:21;16.90;55.50
15156;DHT22;7678;50.058;8.306;2023-06-14T03:10:54;17.00;55.50
15156;DHT22;7678;50.058;8.306;2023-06-14T03:13:23;17.20;55.80
15156;DHT22;7678;50.058;8.306;2023-06-14T03:15:51;17.10;56.70
15156;DHT22;7678;50.058;8.306;2023-06-14T03:18:20;17.00;56.20
15156;DHT22;7678;50.058;8.306;2023-06-14T03:20:54;16.90;55.70
15156;DHT22;7678;50.058;8.306;2023-06-14T03:23:24;17.00;56.00
15156;DHT22;7678;50.058;8.306;2023-06-14T03:25:52;17.00;56.30
15156;DHT22;7678;50.058;8.306;2023-06-14T03:28:20;17.00;56.60
15156;DHT22;7678;50.058;8.306;2023-06-14T03:30:48;16.90;57.10
15156;DHT22;7678;50.058;8.306;2023-06-14T03:33:19;16.70;57.00
15156;DHT22;7678;50.058;8.306;2023-06-14T03:35:48;16.60;57.40
15156;DHT22;7678;50.058;8.306;2023-06-14T03:38:18;16.50;57.40
15156;DHT22;7678;50.058;8.306;2023-06-14T03:40:46;16.50;58.00
15156;DHT22;7678;50.058;8.306;2023-06-14T03:43:15;16.60;57.40
15156;DHT22;7678;50.058;8.306;2023-06-14T03:45:43;16.40;57.80
15156;DHT22;7678;50.058;8.306;2023-06-14T03:48:12;16.30;58.00
15156;DHT22;7678;50.058;8.306;2023-06-14T03:50:40;16.10;58.60
15156;DHT22;7678;50.058;8.306;2023-06-14T03:53:09;16.20;58.70
15156;DHT22;7678;50.058;8.306;2023-06-14T03:55:40;16.30;58.80
15156;DHT22;7678;50.058;8.306;2023-06-14T03:58:11;16.40;59.00
15156;DHT22;7678;50.058;8.306;2023-06-14T04:00:40;16.50;58.70
15156;DHT22;7678;50.058;8.306;2023-06-14T04:03:08;16.50;59.00
15156;DHT22;7678;50.058;8.306;2023-06-14T04:05:37;16.30;58.80
15156;DHT22;7678;50.058;8.306;2023-06-14T04:08:09;16.40;59.30
15156;DHT22;7678;50.058;8.306;2023-06-14T04:10:37;16.40;59.90
15156;DHT22;7678;50.058;8.306;2023-06-14T04:13:07;16.30;59.60
15156;DHT22;7678;50.058;8.306;2023-06-14T04:15:38;16.40;60.50
15156;DHT22;7678;50.058;8.306;2023-06-14T04:18:08;16.30;60.40
15156;DHT22;7678;50.058;8.306;2023-06-14T04:20:36;16.30;61.30
15156;DHT22;7678;50.058;8.306;2023-06-14T04:23:12;16.20;62.00
15156;DHT22;7678;50.058;8.306;2023-06-14T04:25:43;16.40;61.50
15156;DHT22;7678;50.058;8.306;2023-06-14T04:28:13;16.50;62.00
15156;DHT22;7678;50.058;8.306;2023-06-14T04:30:42;16.50;61.20
15156;DHT22;7678;50.058;8.306;2023-06-14T04:33:12;16.30;62.60
15156;DHT22;7678;50.058;8.306;2023-06-14T04:35:42;16.40;62.40
15156;DHT22;7678;50.058;8.306;2023-06-14T04:38:14;16.30;61.80
15156;DHT22;7678;50.058;8.306;2023-06-14T04:40:42;16.30;61.90
15156;DHT22;7678;50.058;8.306;2023-06-14T04:43:12;16.40;62.20
15156;DHT22;7678;50.058;8.306;2023-06-14T04:45:42;16.50;62.20
15156;DHT22;7678;50.058;8.306;2023-06-14T04:48:12;16.60;61.90
15156;DHT22;7678;50.058;8.306;2023-06-14T04:50:40;16.50;62.00
15156;DHT22;7678;50.058;8.306;2023-06-14T04:53:10;16.80;61.90
15156;DHT22;7678;50.058;8.306;2023-06-14T04:55:38;16.80;61.60
15156;DHT22;7678;50.058;8.306;2023-06-14T04:58:06;17.00;62.00
15156;DHT22;7678;50.058;8.306;2023-06-14T05:00:36;17.00;60.50
15156;DHT22;7678;50.058;8.306;2023-06-14T05:03:04;17.10;61.10
15156;DHT22;7678;50.058;8.306;2023-06-14T05:05:34;17.00;61.40
15156;DHT22;7678;50.058;8.306;2023-06-14T05:08:02;16.90;61.80
15156;DHT22;7678;50.058;8.306;2023-06-14T05:10:32;16.90;61.80
15156;DHT22;7678;50.058;8.306;2023-06-14T05:13:01;16.90;63.10
15156;DHT22;7678;50.058;8.306;2023-06-14T05:15:30;17.00;62.90
15156;DHT22;7678;50.058;8.306;2023-06-14T05:18:00;17.10;62.70
15156;DHT22;7678;50.058;8.306;2023-06-14T05:20:29;17.20;62.90
15156;DHT22;7678;50.058;8.306;2023-06-14T05:22:57;17.30;63.00
15156;DHT22;7678;50.058;8.306;2023-06-14T05:25:25;17.40;63.20
15156;DHT22;7678;50.058;8.306;2023-06-14T05:27:55;17.50;63.00
15156;DHT22;7678;50.058;8.306;2023-06-14T05:30:23;17.70;63.20
15156;DHT22;7678;50.058;8.306;2023-06-14T05:32:51;17.70;62.40
15156;DHT22;7678;50.058;8.306;2023-06-14T05:35:21;17.70;62.20
15156;DHT22;7678;50.058;8.306;2023-06-14T05:37:50;17.90;61.60
15156;DHT22;7678;50.058;8.306;2023-06-14T05:40:19;18.10;61.10
15156;DHT22;7678;50.058;8.306;2023-06-14T05:42:47;18.30;58.20
15156;DHT22;7678;50.058;8.306;2023-06-14T05:45:15;18.50;57.70
15156;DHT22;7678;50.058;8.306;2023-06-14T05:47:44;18.60;57.20
15156;DHT22;7678;50.058;8.306;2023-06-14T05:50:12;18.80;57.20
15156;DHT22;7678;50.058;8.306;2023-06-14T05:52:43;18.70;56.40
15156;DHT22;7678;50.058;8.306;2023-06-14T05:55:12;18.80;56.90
15156;DHT22;7678;50.058;8.306;2023-06-14T05:57:41;18.90;57.20
15156;DHT22;7678;50.058;8.306;2023-06-14T06:00:10;19.10;56.40
15156;DHT22;7678;50.058;8.306;2023-06-14T06:02:41;19.10;56.00
15156;DHT22;7678;50.058;8.306;2023-06-14T06:05:10;19.00;56.20
15156;DHT22;7678;50.058;8.306;2023-06-14T06:07:41;19.20;56.90
15156;DHT22;7678;50.058;8.306;2023-06-14T06:10:11;19.20;56.60
15156;DHT22;7678;50.058;8.306;2023-06-14T06:12:40;19.20;55.70
15156;DHT22;7678;50.058;8.306;2023-06-14T06:15:11;19.30;56.00
15156;DHT22;7678;50.058;8.306;2023-06-14T06:17:43;19.20;56.80
15156;DHT22;7678;50.058;8.306;2023-06-14T06:20:22;19.20;56.50
15156;DHT22;7678;50.058;8.306;2023-06-14T06:22:57;19.20;56.70
15156;DHT22;7678;50.058;8.306;2023-06-14T06:25:27;19.10;57.40
15156;DHT22;7678;50.058;8.306;2023-06-14T06:27:55;19.30;57.90
15156;DHT22;7678;50.058;8.306;2023-06-14T06:30:24;19.40;57.60
15156;DHT22;7678;50.058;8.306;2023-06-14T06:32:53;19.30;57.30
15156;DHT22;7678;50.058;8.306;2023-06-14T06:35:25;19.20;57.30
15156;DHT22;7678;50.058;8.306;2023-06-14T06:37:59;19.30;57.20
15156;DHT22;7678;50.058;8.306;2023-06-14T06:40:29;19.30;57.20
15156;DHT22;7678;50.058;8.306;2023-06-14T06:43:02;19.20;56.70
15156;DHT22;7678;50.058;8.306;2023-06-14T06:45:39;19.30;56.80
15156;DHT22;7678;50.058;8.306;2023-06-14T06:48:07;19.20;57.70
15156;DHT22;7678;50.058;8.306;2023-06-14T06:50:38;19.30;57.50
15156;DHT22;7678;50.058;8.306;2023-06-14T06:53:08;19.20;57.20
15156;DHT22;7678;50.058;8.306;2023-06-14T06:55:36;19.20;57.40
15156;DHT22;7678;50.058;8.306;2023-06-14T06:58:04;19.10;57.10
15156;DHT22;7678;50.058;8.306;2023-06-14T07:00:42;19.10;57.50
15156;DHT22;7678;50.058;8.306;2023-06-14T07:03:39;19.10;57.70
15156;DHT22;7678;50.058;8.306;2023-06-14T07:06:07;19.20;57.70
15156;DHT22;7678;50.058;8.306;2023-06-14T07:08:36;19.30;57.90
15156;DHT22;7678;50.058;8.306;2023-06-14T07:11:05;19.40;57.20
15156;DHT22;7678;50.058;8.306;2023-06-14T07:13:34;19.40;57.10
15156;DHT22;7678;50.058;8.306;2023-06-14T07:16:04;19.40;57.60
15156;DHT22;7678;50.058;8.306;2023-06-14T07:18:33;19.30;57.30
15156;DHT22;7678;50.058;8.306;2023-06-14T07:21:01;19.30;57.50
15156;DHT22;7678;50.058;8.306;2023-06-14T07:23:30;19.50;58.20
15156;DHT22;7678;50.058;8.306;2023-06-14T07:26:00;19.40;57.80
15156;DHT22;7678;50.058;8.306;2023-06-14T07:28:28;19.60;58.20
15156;DHT22;7678;50.058;8.306;2023-06-14T07:30:56;19.40;57.90
15156;DHT22;7678;50.058;8.306;2023-06-14T07:33:25;19.50;58.10
15156;DHT22;7678;50.058;8.306;2023-06-14T07:35:56;19.50;56.80
15156;DHT22;7678;50.058;8.306;2023-06-14T07:38:28;19.60;57.50
15156;DHT22;7678;50.058;8.306;2023-06-14T07:40:56;19.60;57.10
15156;DHT22;7678;50.058;8.306;2023-06-14T07:43:26;19.50;56.60
15156;DHT22;7678;50.058;8.306;2023-06-14T07:45:55;19.60;56.70
15156;DHT22;7678;50.058;8.306;2023-06-14T07:48:34;19.80;57.40
15156;DHT22;7678;50.058;8.306;2023-06-14T07:51:02;19.90;57.90
15156;DHT22;7678;50.058;8.306;2023-06-14T07:53:31;20.00;57.60
15156;DHT22;7678;50.058;8.306;2023-06-14T07:56:03;20.10;57.80
15156;DHT22;7678;50.058;8.306;2023-06-14T07:58:32;20.10;56.40
15156;DHT22;7678;50.058;8.306;2023-06-14T08:01:01;20.10;55.90
15156;DHT22;7678;50.058;8.306;2023-06-14T08:03:33;20.00;57.10
15156;DHT22;7678;50.058;8.306;2023-06-14T08:06:01;20.10;57.00
15156;DHT22;7678;50.058;8.306;2023-06-14T08:08:29;20.10;57.40
15156;DHT22;7678;50.058;8.306;2023-06-14T08:10:58;20.10;56.60
15156;DHT22;7678;50.058;8.306;2023-06-14T08:13:26;20.00;57.70
15156;DHT22;7678;50.058;8.306;2023-06-14T08:15:56;20.00;57.50
15156;DHT22;7678;50.058;8.306;2023-06-14T08:18:25;20.10;57.30
15156;DHT22;7678;50.058;8.306;2023-06-14T08:20:53;20.20;57.70
15156;DHT22;7678;50.058;8.306;2023-06-14T08:23:24;20.30;56.80
15156;DHT22;7678;50.058;8.306;2023-06-14T08:25:52;20.10;56.70
15156;DHT22;7678;50.058;8.306;2023-06-14T08:28:20;20.10;57.70
15156;DHT22;7678;50.058;8.306;2023-06-14T08:30:49;20.30;57.40
15156;DHT22;7678;50.058;8.306;2023-06-14T08:33:18;20.50;57.70
15156;DHT22;7678;50.058;8.306;2023-06-14T08:35:47;20.40;57.70
15156;DHT22;7678;50.058;8.306;2023-06-14T08:38:15;20.50;57.10
15156;DHT22;7678;50.058;8.306;2023-06-14T08:40:45;20.50;56.80
15156;DHT22;7678;50.058;8.306;2023-06-14T08:43:15;20.50;56.50
15156;DHT22;7678;50.058;8.306;2023-06-14T08:45:47;20.50;56.50
15156;DHT22;7678;50.058;8.306;2023-06-14T08:48:59;20.50;55.80
15156;DHT22;7678;50.058;8.306;2023-06-14T08:51:28;20.70;56.10
15156;DHT22;7678;50.058;8.306;2023-06-14T08:54:02;20.70;55.20
15156;DHT22;7678;50.058;8.306;2023-06-14T08:56:31;20.60;56.30
15156;DHT22;7678;50.058;8.306;2023-06-14T08:59:01;20.70;56.80
15156;DHT22;7678;50.058;8.306;2023-06-14T09:01:34;20.80;57.00
15156;DHT22;7678;50.058;8.306;2023-06-14T09:04:04;20.90;55.90
15156;DHT22;7678;50.058;8.306;2023-06-14T09:06:33;21.10;56.60
15156;DHT22;7678;50.058;8.306;2023-06-14T09:09:04;21.10;56.10
15156;DHT22;7678;50.058;8.306;2023-06-14T09:11:32;21.20;56.80
15156;DHT22;7678;50.058;8.306;2023-06-14T09:14:00;21.10;56.00
15156;DHT22;7678;50.058;8.306;2023-06-14T09:16:32;21.20;55.90
15156;DHT22;7678;50.058;8.306;2023-06-14T09:19:00;21.00;55.70
15156;DHT22;7678;50.058;8.306;2023-06-14T09:21:34;21.10;56.00
15156;DHT22;7678;50.058;8.306;2023-06-14T09:24:05;21.20;55.10
15156;DHT22;7678;50.058;8.306;2023-06-14T09:26:38;21.10;55.30
15156;DHT22;7678;50.058;8.306;2023-06-14T09:29:09;21.30;55.00
15156;DHT22;7678;50.058;8.306;2023-06-14T09:31:38;21.10;55.70
15156;DHT22;7678;50.058;8.306;2023-06-14T09:34:06;21.20;55.50
15156;DHT22;7678;50.058;8.306;2023-06-14T09:36:36;21.20;55.30
15156;DHT22;7678;50.058;8.306;2023-06-14T09:39:05;21.30;55.10
15156;DHT22;7678;50.058;8.306;2023-06-14T09:41:38;21.30;54.50
15156;DHT22;7678;50.058;8.306;2023-06-14T09:44:11;21.20;54.30
15156;DHT22;7678;50.058;8.306;2023-06-14T09:46:50;21.30;54.70
15156;DHT22;7678;50.058;8.306;2023-06-14T09:49:40;21.30;53.20
15156;DHT22;7678;50.058;8.306;2023-06-14T09:52:12;21.40;54.40
15156;DHT22;7678;50.058;8.306;2023-06-14T09:54:43;21.50;54.00
15156;DHT22;7678;50.058;8.306;2023-06-14T09:57:14;21.70;53.70
15156;DHT22;7678;50.058;8.306;2023-06-14T09:59:43;21.80;53.20
15156;DHT22;7678;50.058;8.306;2023-06-14T10:02:18;21.60;52.20
15156;DHT22;7678;50.058;8.306;2023-06-14T10:04:56;21.50;53.30
15156;DHT22;7678;50.058;8.306;2023-06-14T10:07:32;21.50;52.80
15156;DHT22;7678;50.058;8.306;2023-06-14T10:10:00;21.70;53.00
15156;DHT22;7678;50.058;8.306;2023-06-14T10:12:28;21.70;51.40
15156;DHT22;7678;50.058;8.306;2023-06-14T10:14:58;21.70;51.20
15156;DHT22;7678;50.058;8.306;2023-06-14T10:17:33;21.60;50.70
15156;DHT22;7678;50.058;8.306;2023-06-14T10:20:21;21.50;51.60
15156;DHT22;7678;50.058;8.306;2023-06-14T10:22:58;21.50;52.20
15156;DHT22;7678;50.058;8.306;2023-06-14T10:25:31;21.80;51.20
15156;DHT22;7678;50.058;8.306;2023-06-14T10:28:05;21.90;51.80
15156;DHT22;7678;50.058;8.306;2023-06-14T10:31:02;22.10;50.50
15156;DHT22;7678;50.058;8.306;2023-06-14T10:33:30;22.10;50.50
15156;DHT22;7678;50.058;8.306;2023-06-14T10:36:25;22.30;51.30
15156;DHT22;7678;50.058;8.306;2023-06-14T10:39:04;22.30;51.50
15156;DHT22;7678;50.058;8.306;2023-06-14T10:41:35;22.40;51.40
15156;DHT22;7678;50.058;8.306;2023-06-14T10:44:32;22.30;51.60
15156;DHT22;7678;50.058;8.306;2023-06-14T10:47:01;22.30;49.80
15156;DHT22;7678;50.058;8.306;2023-06-14T10:49:40;22.70;51.20
15156;DHT22;7678;50.058;8.306;2023-06-14T10:52:13;22.70;51.10
15156;DHT22;7678;50.058;8.306;2023-06-14T10:55:11;22.90;50.60
15156;DHT22;7678;50.058;8.306;2023-06-14T10:57:43;23.00;50.60
15156;DHT22;7678;50.058;8.306;2023-06-14T11:00:18;22.40;50.00
15156;DHT22;7678;50.058;8.306;2023-06-14T11:06:14;22.70;51.10
15156;DHT22;7678;50.058;8.306;2023-06-14T11:09:20;23.00;49.20
15156;DHT22;7678;50.058;8.306;2023-06-14T11:11:54;22.80;49.10
15156;DHT22;7678;50.058;8.306;2023-06-14T11:14:24;22.80;49.60
15156;DHT22;7678;50.058;8.306;2023-06-14T11:16:52;23.00;49.20
15156;DHT22;7678;50.058;8.306;2023-06-14T11:19:21;22.90;49.10
15156;DHT22;7678;50.058;8.306;2023-06-14T11:21:55;23.10;48.40
15156;DHT22;7678;50.058;8.306;2023-06-14T11:24:23;23.00;47.60
15156;DHT22;7678;50.058;8.306;2023-06-14T11:26:52;23.30;49.20
15156;DHT22;7678;50.058;8.306;2023-06-14T11:29:23;24.00;48.50
15156;DHT22;7678;50.058;8.306;2023-06-14T11:31:54;23.40;46.70
15156;DHT22;7678;50.058;8.306;2023-06-14T11:34:22;23.60;48.40
15156;DHT22;7678;50.058;8.306;2023-06-14T11:36:50;24.10;48.30
15156;DHT22;7678;50.058;8.306;2023-06-14T11:39:27;24.30;48.20
15156;DHT22;7678;50.058;8.306;2023-06-14T11:41:56;24.20;49.00
15156;DHT22;7678;50.058;8.306;2023-06-14T11:44:27;24.20;47.60
15156;DHT22;7678;50.058;8.306;2023-06-14T11:46:56;24.10;48.00
15156;DHT22;7678;50.058;8.306;2023-06-14T11:49:24;24.60;48.90
15156;DHT22;7678;50.058;8.306;2023-06-14T11:51:54;24.30;48.10
15156;DHT22;7678;50.058;8.306;2023-06-14T11:54:22;24.30;48.40
15156;DHT22;7678;50.058;8.306;2023-06-14T11:56:50;24.00;48.00
15156;DHT22;7678;50.058;8.306;2023-06-14T11:59:20;24.10;49.10
15156;DHT22;7678;50.058;8.306;2023-06-14T12:01:48;24.80;47.80
15156;DHT22;7678;50.058;8.306;2023-06-14T12:04:23;24.80;47.30
15156;DHT22;7678;50.058;8.306;2023-06-14T12:06:51;24.90;48.50
15156;DHT22;7678;50.058;8.306;2023-06-14T12:09:22;25.30;47.50
15156;DHT22;7678;50.058;8.306;2023-06-14T12:12:00;25.00;47.40
15156;DHT22;7678;50.058;8.306;2023-06-14T12:14:30;24.50;48.20
15156;DHT22;7678;50.058;8.306;2023-06-14T12:17:04;23.70;48.40
15156;DHT22;7678;50.058;8.306;2023-06-14T12:19:41;23.20;49.10
15156;DHT22;7678;50.058;8.306;2023-06-14T12:22:10;23.20;49.60
15156;DHT22;7678;50.058;8.306;2023-06-14T12:24:39;23.00;49.80
15156;DHT22;7678;50.058;8.306;2023-06-14T12:27:10;23.10;50.10
15156;DHT22;7678;50.058;8.306;2023-06-14T12:29:43;23.70;50.00
15156;DHT22;7678;50.058;8.306;2023-06-14T12:32:12;25.10;49.90
15156;DHT22;7678;50.058;8.306;2023-06-14T12:34:40;25.70;47.50
15156;DHT22;7678;50.058;8.306;2023-06-14T12:37:08;25.40;46.70
15156;DHT22;7678;50.058;8.306;2023-06-14T12:39:37;24.50;48.10
15156;DHT22;7678;50.058;8.306;2023-06-14T12:42:06;24.10;48.80
15156;DHT22;7678;50.058;8.306;2023-06-14T12:44:34;24.10;48.90
15156;DHT22;7678;50.058;8.306;2023-06-14T12:47:08;24.90;48.20
15156;DHT22;7678;50.058;8.306;2023-06-14T12:49:36;24.60;48.50
15156;DHT22;7678;50.058;8.306;2023-06-14T12:52:05;24.20;48.20
15156;DHT22;7678;50.058;8.306;2023-06-14T12:54:33;24.00;48.70
15156;DHT22;7678;50.058;8.306;2023-06-14T12:57:07;23.70;48.60
15156;DHT22;7678;50.058;8.306;2023-06-14T12:59:36;23.90;48.60
15156;DHT22;7678;50.058;8.306;2023-06-14T13:02:16;23.90;49.30
15156;DHT22;7678;50.058;8.306;2023-06-14T13:04:45;24.10;49.20
15156;DHT22;7678;50.058;8.306;2023-06-14T13:07:13;23.90;48.60
15156;DHT22;7678;50.058;8.306;2023-06-14T13:09:41;24.00;49.30
15156;DHT22;7678;50.058;8.306;2023-06-14T13:12:10;24.30;48.80
15156;DHT22;7678;50.058;8.306;2023-06-14T13:14:39;24.80;46.70
15156;DHT22;7678;50.058;8.306;2023-06-14T13:17:08;24.70;45.50
15156;DHT22;7678;50.058;8.306;2023-06-14T13:19:38;24.90;46.40
15156;DHT22;7678;50.058;8.306;2023-06-14T13:22:06;24.90;46.60
15156;DHT22;7678;50.058;8.306;2023-06-14T13:24:35;23.90;46.30
15156;DHT22;7678;50.058;8.306;2023-06-14T13:27:03;23.80;47.00
15156;DHT22;7678;50.058;8.306;2023-06-14T13:29:32;23.50;47.80
15156;DHT22;7678;50.058;8.306;2023-06-14T13:32:03;23.40;48.20
15156;DHT22;7678;50.058;8.306;2023-06-14T13:34:31;23.70;48.80
15156;DHT22;7678;50.058;8.306;2023-06-14T13:37:01;24.00;47.90
15156;DHT22;7678;50.058;8.306;2023-06-14T13:39:29;24.60;46.10
15156;DHT22;7678;50.058;8.306;2023-06-14T13:41:57;25.40;45.30
15156;DHT22;7678;50.058;8.306;2023-06-14T13:44:25;26.20;44.70
15156;DHT22;7678;50.058;8.306;2023-06-14T13:46:53;26.80;45.40
15156;DHT22;7678;50.058;8.306;2023-06-14T13:49:21;26.70;43.30
15156;DHT22;7678;50.058;8.306;2023-06-14T13:51:49;26.70;44.20
15156;DHT22;7678;50.058;8.306;2023-06-14T13:54:19;27.30;44.60
15156;DHT22;7678;50.058;8.306;2023-06-14T13:56:47;26.40;41.60
15156;DHT22;7678;50.058;8.306;2023-06-14T13:59:15;26.50;44.50
15156;DHT22;7678;50.058;8.306;2023-06-14T14:01:44;27.20;43.20
15156;DHT22;7678;50.058;8.306;2023-06-14T14:04:12;26.60;43.10
15156;DHT22;7678;50.058;8.306;2023-06-14T14:06:40;25.60;43.90
15156;DHT22;7678;50.058;8.306;2023-06-14T14:09:08;25.20;45.30
15156;DHT22;7678;50.058;8.306;2023-06-14T14:11:42;24.60;44.80
15156;DHT22;7678;50.058;8.306;2023-06-14T14:14:10;24.70;45.70
15156;DHT22;7678;50.058;8.306;2023-06-14T14:16:39;24.90;45.50
15156;DHT22;7678;50.058;8.306;2023-06-14T14:19:07;24.90;45.70
15156;DHT22;7678;50.058;8.306;2023-06-14T14:21:36;25.70;46.50
15156;DHT22;7678;50.058;8.306;2023-06-14T14:24:06;26.40;44.70
15156;DHT22;7678;50.058;8.306;2023-06-14T14:26:34;25.60;45.60
15156;DHT22;7678;50.058;8.306;2023-06-14T14:29:04;25.10;44.30
15156;DHT22;7678;50.058;8.306;2023-06-14T14:31:32;25.10;44.90
15156;DHT22;7678;50.058;8.306;2023-06-14T14:34:00;25.90;45.50
15156;DHT22;7678;50.058;8.306;2023-06-14T14:36:32;26.50;44.60
15156;DHT22;7678;50.058;8.306;2023-06-14T14:39:04;26.00;43.90
15156;DHT22;7678;50.058;8.306;2023-06-14T14:41:33;25.50;43.70
15156;DHT22;7678;50.058;8.306;2023-06-14T14:44:02;25.40;44.40
15156;DHT22;7678;50.058;8.306;2023-06-14T14:46:32;26.00;44.00
15156;DHT22;7678;50.058;8.306;2023-06-14T14:49:00;26.60;42.70
15156;DHT22;7678;50.058;8.306;2023-06-14T14:51:28;26.90;43.40
15156;DHT22;7678;50.058;8.306;2023-06-14T14:53:59;27.00;42.80
15156;DHT22;7678;50.058;8.306;2023-06-14T14:56:27;27.20;41.30
15156;DHT22;7678;50.058;8.306;2023-06-14T14:58:56;27.20;41.40
15156;DHT22;7678;50.058;8.306;2023-06-14T15:01:24;27.20;41.10
15156;DHT22;7678;50.058;8.306;2023-06-14T15:03:54;26.70;43.90
15156;DHT22;7678;50.058;8.306;2023-06-14T15:06:26;26.50;44.00
15156;DHT22;7678;50.058;8.306;2023-06-14T15:08:56;26.40;43.70
15156;DHT22;7678;50.058;8.306;2023-06-14T15:11:25;26.30;43.80
15156;DHT22;7678;50.058;8.306;2023-06-14T15:13:54;26.10;44.30
15156;DHT22;7678;50.058;8.306;2023-06-14T15:16:22;25.90;43.70
15156;DHT22;7678;50.058;8.306;2023-06-14T15:18:51;25.30;44.50
15156;DHT22;7678;50.058;8.306;2023-06-14T15:21:21;25.30;45.40
15156;DHT22;7678;50.058;8.306;2023-06-14T15:23:50;25.50;44.10
15156;DHT22;7678;50.058;8.306;2023-06-14T15:26:20;25.20;44.40
15156;DHT22;7678;50.058;8.306;2023-06-14T15:28:50;24.70;43.80
15156;DHT22;7678;50.058;8.306;2023-06-14T15:31:19;25.20;45.00
15156;DHT22;7678;50.058;8.306;2023-06-14T15:33:47;26.20;45.10
15156;DHT22;7678;50.058;8.306;2023-06-14T15:36:15;26.40;44.70
15156;DHT22;7678;50.058;8.306;2023-06-14T15:38:46;26.30;44.90
15156;DHT22;7678;50.058;8.306;2023-06-14T15:41:15;26.30;43.20
15156;DHT22;7678;50.058;8.306;2023-06-14T15:43:43;26.90;44.10
15156;DHT22;7678;50.058;8.306;2023-06-14T15:46:11;27.00;42.40
15156;DHT22;7678;50.058;8.306;2023-06-14T15:48:40;26.40;43.40
15156;DHT22;7678;50.058;8.306;2023-06-14T15:51:09;26.30;42.30
15156;DHT22;7678;50.058;8.306;2023-06-14T15:53:37;26.50;43.20
15156;DHT22;7678;50.058;8.306;2023-06-14T15:56:07;26.50;43.10
15156;DHT22;7678;50.058;8.306;2023-06-14T15:58:35;27.40;42.60
15156;DHT22;7678;50.058;8.306;2023-06-14T16:01:04;27.50;42.20
15156;DHT22;7678;50.058;8.306;2023-06-14T16:03:32;27.40;40.80
15156;DHT22;7678;50.058;8.306;2023-06-14T16:06:00;27.20;41.60
15156;DHT22;7678;50.058;8.306;2023-06-14T16:08:29;27.50;41.20